createdAt,value
2022-08-25T00:00:47.705Z,68.21
2022-08-25T00:01:51.159Z,68.85
2022-08-25T00:02:55.931Z,68.79
2022-08-25T00:03:58.369Z,68.75
2022-08-25T00:04:59.837Z,68.73
2022-08-25T00:06:01.265Z,69.35
2022-08-25T00:07:04.759Z,69.78
2022-08-25T00:08:06.864Z,69.68
2022-08-25T00:09:09.125Z,69.88
2022-08-25T00:10:10.641Z,69.96
2022-08-25T00:11:14.470Z,69.80
2022-08-25T00:12:15.989Z,70.18
2022-08-25T00:13:17.414Z,70.35
2022-08-25T00:14:24.081Z,69.98
2022-08-25T00:15:25.526Z,69.35
2022-08-25T00:16:28.241Z,69.21
2022-08-25T00:17:29.619Z,69.45
2022-08-25T00:18:31.057Z,69.84
2022-08-25T00:19:33.895Z,70.13
2022-08-25T00:20:35.297Z,69.98
2022-08-25T00:21:37.330Z,69.33
2022-08-25T00:22:38.743Z,69.25
2022-08-25T00:23:40.411Z,69.43
2022-08-25T00:24:41.924Z,69.46
2022-08-25T00:25:43.284Z,70.29
2022-08-25T00:26:45.734Z,70.28
2022-08-25T00:27:47.176Z,70.04
2022-08-25T00:28:48.587Z,70.44
2022-08-25T00:29:49.935Z,70.37
2022-08-25T00:30:51.448Z,70.93
2022-08-25T00:31:53.249Z,70.78
2022-08-25T00:32:57.409Z,71.01
2022-08-25T00:33:59.054Z,71.17
2022-08-25T00:35:00.497Z,71.29
2022-08-25T00:36:02.009Z,71.11
2022-08-25T00:37:04.380Z,71.32
2022-08-25T00:38:05.873Z,71.06
2022-08-25T00:39:08.537Z,70.90
2022-08-25T00:40:10.302Z,70.60
2022-08-25T00:41:13.911Z,70.74
2022-08-25T00:42:16.262Z,70.69
2022-08-25T00:43:18.192Z,70.06
2022-08-25T00:44:20.198Z,70.00
2022-08-25T00:45:22.216Z,70.16
2022-08-25T00:46:25.409Z,70.37
2022-08-25T00:47:26.864Z,70.81
2022-08-25T00:48:28.257Z,70.97
2022-08-25T00:49:29.669Z,71.31
2022-08-25T00:50:33.133Z,71.11
2022-08-25T00:51:38.906Z,71.30
2022-08-25T00:52:45.251Z,71.47
2022-08-25T00:53:47.458Z,71.76
2022-08-25T00:55:01.896Z,71.65
2022-08-25T00:56:06.090Z,71.81
2022-08-25T00:57:08.886Z,71.53
2022-08-25T00:58:16.235Z,71.80
2022-08-25T00:59:21.461Z,71.87
2022-08-25T01:00:31.260Z,71.87
2022-08-25T01:01:32.709Z,72.05
2022-08-25T01:02:34.180Z,71.64
2022-08-25T01:03:35.629Z,71.99
2022-08-25T01:04:37.334Z,72.69
2022-08-25T01:05:39.701Z,72.49
2022-08-25T01:06:42.641Z,72.07
2022-08-25T01:07:44.725Z,72.10
2022-08-25T01:08:46.576Z,72.26
2022-08-25T01:09:49.946Z,72.67
2022-08-25T01:10:51.390Z,72.65
2022-08-25T01:11:52.823Z,73.00
2022-08-25T01:12:58.249Z,73.02
2022-08-25T01:14:01.297Z,72.71
2022-08-25T01:15:05.973Z,72.45
2022-08-25T01:16:07.592Z,73.05
2022-08-25T01:17:09.051Z,73.03
2022-08-25T01:18:10.547Z,73.12
2022-08-25T01:19:15.324Z,73.27
2022-08-25T01:20:18.756Z,73.07
2022-08-25T01:21:22.046Z,73.49
2022-08-25T01:22:23.423Z,72.37
2022-08-25T01:23:25.227Z,73.17
2022-08-25T01:24:35.124Z,73.28
2022-08-25T01:25:51.729Z,73.24
2022-08-25T01:26:53.265Z,73.43
2022-08-25T01:27:55.313Z,73.94
2022-08-25T01:28:57.221Z,73.68
2022-08-25T01:29:58.841Z,73.72
2022-08-25T01:31:00.287Z,73.82
2022-08-25T01:32:04.143Z,73.85
2022-08-25T01:33:06.326Z,74.02
2022-08-25T01:34:08.813Z,73.38
2022-08-25T01:35:10.176Z,73.91
2022-08-25T01:36:11.639Z,73.81
2022-08-25T01:37:14.009Z,73.90
2022-08-25T01:38:15.595Z,73.46
2022-08-25T01:39:17.015Z,73.75
2022-08-25T01:40:18.462Z,73.61
2022-08-25T01:41:25.639Z,74.42
2022-08-25T01:42:37.891Z,74.95
2022-08-25T01:43:39.316Z,74.74
2022-08-25T01:44:42.691Z,74.77
2022-08-25T01:45:47.470Z,74.55
2022-08-25T01:46:48.986Z,73.84
2022-08-25T01:47:50.392Z,74.40
2022-08-25T01:48:51.831Z,74.41
2022-08-25T01:49:53.568Z,74.69
2022-08-25T01:50:55.005Z,74.72
2022-08-25T01:51:59.932Z,74.56
2022-08-25T01:53:13.186Z,74.04
2022-08-25T01:54:15.138Z,74.57
2022-08-25T01:55:16.582Z,74.83
2022-08-25T01:56:18.045Z,74.59
2022-08-25T01:57:20.052Z,74.64
2022-08-25T01:58:23.019Z,74.58
2022-08-25T01:59:24.665Z,74.85
2022-08-25T02:00:26.090Z,75.31
2022-08-25T02:01:27.655Z,74.72
2022-08-25T02:02:29.147Z,74.45
2022-08-25T02:03:33.360Z,74.38
2022-08-25T02:04:35.127Z,74.62
2022-08-25T02:05:36.517Z,74.78
2022-08-25T02:06:38.701Z,74.94
2022-08-25T02:07:43.645Z,74.75
2022-08-25T02:08:45.057Z,75.27
2022-08-25T02:09:46.456Z,75.32
2022-08-25T02:10:47.881Z,74.83
2022-08-25T02:11:49.254Z,74.35
2022-08-25T02:12:50.829Z,74.62
2022-08-25T02:13:55.823Z,74.07
2022-08-25T02:14:57.353Z,74.50
2022-08-25T02:16:00.806Z,74.15
2022-08-25T02:17:02.787Z,74.49
2022-08-25T02:18:04.379Z,74.79
2022-08-25T02:19:07.358Z,75.38
2022-08-25T02:20:08.949Z,75.28
2022-08-25T02:21:10.322Z,75.23
2022-08-25T02:22:11.731Z,75.29
2022-08-25T02:23:13.482Z,75.51
2022-08-25T02:24:15.053Z,75.78
2022-08-25T02:25:16.734Z,75.92
2022-08-25T02:26:18.198Z,76.02
2022-08-25T02:27:19.888Z,75.93
2022-08-25T02:28:21.269Z,76.24
2022-08-25T02:29:22.696Z,76.00
2022-08-25T02:30:24.513Z,75.74
2022-08-25T02:31:26.261Z,75.87
2022-08-25T02:32:27.728Z,76.11
2022-08-25T02:33:29.218Z,76.75
2022-08-25T02:34:30.676Z,76.00
2022-08-25T02:35:32.088Z,76.05
2022-08-25T02:36:33.647Z,76.20
2022-08-25T02:37:35.701Z,76.62
2022-08-25T02:38:37.722Z,76.67
2022-08-25T02:39:39.154Z,76.30
2022-08-25T02:40:40.616Z,76.35
2022-08-25T02:41:42.443Z,76.63
2022-08-25T02:42:44.232Z,76.90
2022-08-25T02:43:46.226Z,77.03
2022-08-25T02:44:47.614Z,76.95
2022-08-25T02:45:49.070Z,77.17
2022-08-25T02:46:50.495Z,76.57
2022-08-25T02:47:51.945Z,77.16
2022-08-25T02:48:53.624Z,77.33
2022-08-25T02:49:55.079Z,77.57
2022-08-25T02:50:59.389Z,77.88
2022-08-25T02:52:00.802Z,77.47
2022-08-25T02:53:02.807Z,77.68
2022-08-25T02:54:04.950Z,77.81
2022-08-25T02:55:07.696Z,78.02
2022-08-25T02:56:10.270Z,78.05
2022-08-25T02:57:11.662Z,77.99
2022-08-25T02:58:13.841Z,77.99
2022-08-25T02:59:15.804Z,78.25
2022-08-25T03:00:17.461Z,78.14
2022-08-25T03:01:20.298Z,77.85
2022-08-25T03:02:23.772Z,77.89
2022-08-25T03:03:25.238Z,77.75
2022-08-25T03:04:26.766Z,77.74
2022-08-25T03:05:28.360Z,77.73
2022-08-25T03:06:29.802Z,77.38
2022-08-25T03:07:31.286Z,77.37
2022-08-25T03:08:37.247Z,77.25
2022-08-25T03:09:38.687Z,77.58
2022-08-25T03:10:40.181Z,78.07
2022-08-25T03:11:41.597Z,78.25
2022-08-25T03:12:42.984Z,77.76
2022-08-25T03:13:44.970Z,77.73
2022-08-25T03:14:46.400Z,77.87
2022-08-25T03:15:48.024Z,77.90
2022-08-25T03:16:50.806Z,77.72
2022-08-25T03:17:52.290Z,77.95
2022-08-25T03:18:53.710Z,77.83
2022-08-25T03:19:56.683Z,78.32
2022-08-25T03:20:58.275Z,78.09
2022-08-25T03:21:59.770Z,77.92
2022-08-25T03:23:02.200Z,78.56
2022-08-25T03:24:04.139Z,78.47
2022-08-25T03:25:05.884Z,78.61
2022-08-25T03:26:07.926Z,78.47
2022-08-25T03:27:09.286Z,78.58
2022-08-25T03:28:13.210Z,78.36
2022-08-25T03:29:14.606Z,78.15
2022-08-25T03:30:16.001Z,78.58
2022-08-25T03:31:17.499Z,78.81
2022-08-25T03:32:18.913Z,78.64
2022-08-25T03:33:20.287Z,78.61
2022-08-25T03:34:22.577Z,78.50
2022-08-25T03:35:24.052Z,78.23
2022-08-25T03:36:25.614Z,78.14
2022-08-25T03:37:27.330Z,78.43
2022-08-25T03:38:28.711Z,78.14
2022-08-25T03:39:30.062Z,78.24
2022-08-25T03:40:31.790Z,77.68
2022-08-25T03:41:33.260Z,78.29
2022-08-25T03:42:35.181Z,78.07
2022-08-25T03:43:36.638Z,77.58
2022-08-25T03:44:37.999Z,77.77
2022-08-25T03:45:40.563Z,78.27
2022-08-25T03:46:49.469Z,78.36
2022-08-25T03:47:51.906Z,78.21
2022-08-25T03:48:53.765Z,78.51
2022-08-25T03:49:55.231Z,78.68
2022-08-25T03:50:56.647Z,79.11
2022-08-25T03:51:58.093Z,79.42
2022-08-25T03:52:59.572Z,79.51
2022-08-25T03:54:01.656Z,79.28
2022-08-25T03:55:04.104Z,79.00
2022-08-25T03:56:05.681Z,79.53
2022-08-25T03:57:07.065Z,79.34
2022-08-25T03:58:08.687Z,80.09
2022-08-25T03:59:10.136Z,79.17
2022-08-25T04:00:11.963Z,80.13
2022-08-25T04:01:13.885Z,79.95
2022-08-25T04:02:16.973Z,80.03
2022-08-25T04:03:18.377Z,79.95
2022-08-25T04:04:19.773Z,80.05
2022-08-25T04:05:21.192Z,80.19
2022-08-25T04:06:22.626Z,78.86
2022-08-25T04:07:24.061Z,79.74
2022-08-25T04:08:25.452Z,79.97
2022-08-25T04:09:26.808Z,80.48
2022-08-25T04:10:31.894Z,80.14
2022-08-25T04:11:33.514Z,79.87
2022-08-25T04:12:34.992Z,79.92
2022-08-25T04:13:36.581Z,79.59
2022-08-25T04:14:37.977Z,79.34
2022-08-25T04:15:42.285Z,79.96
2022-08-25T04:16:44.105Z,80.31
2022-08-25T04:17:45.685Z,80.72
2022-08-25T04:18:48.449Z,80.47
2022-08-25T04:19:49.864Z,80.55
2022-08-25T04:20:51.261Z,80.87
2022-08-25T04:21:56.540Z,80.60
2022-08-25T04:22:58.253Z,80.67
2022-08-25T04:23:59.639Z,80.79
2022-08-25T04:25:01.089Z,80.81
2022-08-25T04:26:02.751Z,81.39
2022-08-25T04:27:04.191Z,80.76
2022-08-25T04:28:05.780Z,81.24
2022-08-25T04:29:08.263Z,81.21
2022-08-25T04:30:10.010Z,81.32
2022-08-25T04:31:12.288Z,81.15
2022-08-25T04:32:13.861Z,81.44
2022-08-25T04:33:15.295Z,81.45
2022-08-25T04:34:30.434Z,81.70
2022-08-25T04:35:32.736Z,82.53
2022-08-25T04:36:34.545Z,82.46
2022-08-25T04:37:36.269Z,82.56
2022-08-25T04:38:38.316Z,82.83
2022-08-25T04:39:39.789Z,82.66
2022-08-25T04:40:41.187Z,82.71
2022-08-25T04:41:42.609Z,82.84
2022-08-25T04:42:44.062Z,82.77
2022-08-25T04:43:48.774Z,82.49
2022-08-25T04:44:50.223Z,82.68
2022-08-25T04:45:51.745Z,82.89
2022-08-25T04:46:53.312Z,82.54
2022-08-25T04:48:05.419Z,82.44
2022-08-25T04:49:06.993Z,81.53
2022-08-25T04:50:08.854Z,81.26
2022-08-25T04:51:12.089Z,81.97
2022-08-25T04:52:14.427Z,81.94
2022-08-25T04:53:16.361Z,81.88
2022-08-25T04:54:18.335Z,81.69
2022-08-25T04:55:19.758Z,81.48
2022-08-25T04:56:22.688Z,80.69
2022-08-25T04:57:24.054Z,80.61
2022-08-25T04:58:25.552Z,80.36
2022-08-25T04:59:29.335Z,80.00
2022-08-25T05:00:34.038Z,80.23
2022-08-25T05:01:35.578Z,79.91
2022-08-25T05:02:37.585Z,80.78
2022-08-25T05:03:39.002Z,80.22
2022-08-25T05:04:40.403Z,80.17
2022-08-25T05:05:41.983Z,79.72
2022-08-25T05:06:43.388Z,80.34
2022-08-25T05:07:46.427Z,79.86
2022-08-25T05:08:47.946Z,79.67
2022-08-25T05:09:49.299Z,79.68
2022-08-25T05:10:50.705Z,80.13
2022-08-25T05:11:53.592Z,80.02
2022-08-25T05:12:55.098Z,79.89
2022-08-25T05:13:57.229Z,80.28
2022-08-25T05:14:59.093Z,80.29
2022-08-25T05:16:00.712Z,79.57
2022-08-25T05:17:02.498Z,80.25
2022-08-25T05:18:04.060Z,79.87
2022-08-25T05:19:05.765Z,79.46
2022-08-25T05:20:07.419Z,79.39
2022-08-25T05:21:10.669Z,79.48
2022-08-25T05:22:12.140Z,79.41
2022-08-25T05:23:13.633Z,79.53
2022-08-25T05:24:15.247Z,79.43
2022-08-25T05:25:18.332Z,79.07
2022-08-25T05:26:21.093Z,78.74
2022-08-25T05:27:22.558Z,77.85
2022-08-25T05:28:24.002Z,76.92
2022-08-25T05:29:25.720Z,76.81
2022-08-25T05:30:27.196Z,76.57
2022-08-25T05:31:28.725Z,76.45
2022-08-25T05:32:30.122Z,76.30
2022-08-25T05:33:32.563Z,76.10
2022-08-25T05:34:35.574Z,76.16
2022-08-25T05:35:37.643Z,75.85
2022-08-25T05:36:39.074Z,75.92
2022-08-25T05:37:40.484Z,75.70
2022-08-25T05:38:42.097Z,75.51
2022-08-25T05:39:43.512Z,75.46
2022-08-25T05:40:45.157Z,75.00
2022-08-25T05:41:46.677Z,75.16
2022-08-25T05:42:48.127Z,75.05
2022-08-25T05:43:49.690Z,75.00
2022-08-25T05:44:51.290Z,74.68
2022-08-25T05:45:56.672Z,74.59
2022-08-25T05:46:58.141Z,74.71
2022-08-25T05:47:59.659Z,74.69
2022-08-25T05:49:01.114Z,74.63
2022-08-25T05:50:02.615Z,74.75
2022-08-25T05:51:05.449Z,74.72
2022-08-25T05:52:06.804Z,75.36
2022-08-25T05:53:08.300Z,74.82
2022-08-25T05:54:09.805Z,74.80
2022-08-25T05:55:11.352Z,74.74
2022-08-25T05:56:13.615Z,75.03
2022-08-25T05:57:15.094Z,74.88
2022-08-25T05:58:16.704Z,75.14
2022-08-25T05:59:18.123Z,75.03
2022-08-25T06:00:19.627Z,74.72
2022-08-25T06:01:28.690Z,74.79
2022-08-25T06:02:30.094Z,74.34
2022-08-25T06:03:31.568Z,74.90
2022-08-25T06:04:33.041Z,74.71
2022-08-25T06:05:34.583Z,74.86
2022-08-25T06:06:36.117Z,75.03
2022-08-25T06:07:37.567Z,74.42
2022-08-25T06:08:39.116Z,75.23
2022-08-25T06:09:42.036Z,74.80
2022-08-25T06:10:43.518Z,74.22
2022-08-25T06:11:44.944Z,73.84
2022-08-25T06:12:46.772Z,74.01
2022-08-25T06:13:48.488Z,74.35
2022-08-25T06:14:50.090Z,73.92
2022-08-25T06:15:56.940Z,73.68
2022-08-25T06:16:58.394Z,73.68
2022-08-25T06:18:01.770Z,73.98
2022-08-25T06:19:03.484Z,73.60
2022-08-25T06:20:05.170Z,73.43
2022-08-25T06:21:12.690Z,73.10
2022-08-25T06:22:14.145Z,73.26
2022-08-25T06:23:15.930Z,72.95
2022-08-25T06:24:17.295Z,72.74
2022-08-25T06:25:20.025Z,72.31
2022-08-25T06:26:21.733Z,72.30
2022-08-25T06:27:23.128Z,72.44
2022-08-25T06:28:24.529Z,72.00
2022-08-25T06:29:26.402Z,71.67
2022-08-25T06:30:28.638Z,71.64
2022-08-25T06:31:30.761Z,71.46
2022-08-25T06:32:32.667Z,70.62
2022-08-25T06:33:34.297Z,69.33
2022-08-25T06:34:35.858Z,68.63
2022-08-25T06:35:37.565Z,68.07
2022-08-25T06:36:39.622Z,66.29
2022-08-25T06:37:41.028Z,65.53
2022-08-25T06:38:42.766Z,64.39
2022-08-25T06:39:44.214Z,62.36
2022-08-25T06:40:47.305Z,61.11
2022-08-25T06:41:55.716Z,57.44
2022-08-25T06:43:00.313Z,54.30
2022-08-25T06:44:05.332Z,50.69
2022-08-25T06:45:07.742Z,47.61
2022-08-25T06:46:09.170Z,46.89
2022-08-25T06:47:10.864Z,45.14
2022-08-25T06:48:12.289Z,44.21
2022-08-25T06:49:13.881Z,42.32
2022-08-25T06:50:15.405Z,41.39
2022-08-25T06:51:18.558Z,39.99
2022-08-25T06:52:19.961Z,39.62
2022-08-25T06:53:21.385Z,38.47
2022-08-25T06:54:22.850Z,37.46
2022-08-25T06:55:24.215Z,37.32
2022-08-25T06:56:25.642Z,37.48
2022-08-25T06:57:28.090Z,37.92
2022-08-25T06:58:29.667Z,38.76
2022-08-25T06:59:32.185Z,40.23
2022-08-25T07:00:34.126Z,41.50
2022-08-25T07:01:35.713Z,43.36
2022-08-25T07:02:37.317Z,44.53
2022-08-25T07:03:39.183Z,45.58
2022-08-25T07:04:40.614Z,46.71
2022-08-25T07:05:43.879Z,48.45
2022-08-25T07:06:45.634Z,48.64
2022-08-25T07:07:47.136Z,49.43
2022-08-25T07:08:48.564Z,50.00
2022-08-25T07:09:50.014Z,50.43
2022-08-25T07:10:51.431Z,51.14
2022-08-25T07:11:52.870Z,51.61
2022-08-25T07:12:54.353Z,52.04
2022-08-25T07:13:55.829Z,52.31
2022-08-25T07:15:17.179Z,52.86
2022-08-25T07:16:19.939Z,53.13
2022-08-25T07:17:22.237Z,53.78
2022-08-25T07:18:24.727Z,54.12
2022-08-25T07:19:26.188Z,54.03
2022-08-25T07:20:27.794Z,54.22
2022-08-25T07:21:33.674Z,54.49
2022-08-25T07:22:37.138Z,54.70
2022-08-25T07:23:38.952Z,54.53
2022-08-25T07:24:40.614Z,54.65
2022-08-25T07:25:42.032Z,55.31
2022-08-25T07:26:43.845Z,55.60
2022-08-25T07:27:45.678Z,55.43
2022-08-25T07:28:47.614Z,56.08
2022-08-25T07:29:49.141Z,56.24
2022-08-25T07:30:51.605Z,56.76
2022-08-25T07:31:53.433Z,57.07
2022-08-25T07:34:16.734Z,56.48
2022-08-25T07:35:18.938Z,56.69
2022-08-25T07:36:20.985Z,56.88
2022-08-25T07:37:38.271Z,57.47
2022-08-25T07:38:45.301Z,57.95
2022-08-25T07:39:47.317Z,57.67
2022-08-25T07:40:53.309Z,57.49
2022-08-25T07:41:54.901Z,57.75
2022-08-25T07:42:57.388Z,58.00
2022-08-25T07:43:58.796Z,57.32
2022-08-25T07:45:00.215Z,57.58
2022-08-25T07:46:06.171Z,57.61
2022-08-25T07:47:07.579Z,57.36
2022-08-25T07:48:10.918Z,58.07
2022-08-25T07:49:16.857Z,58.55
2022-08-25T07:50:18.813Z,58.34
2022-08-25T07:51:20.254Z,57.70
2022-08-25T07:52:21.803Z,57.46
2022-08-25T07:53:23.207Z,56.98
2022-08-25T07:54:24.805Z,56.80
2022-08-25T07:55:36.417Z,56.90
2022-08-25T07:56:38.375Z,56.44
2022-08-25T07:57:40.490Z,56.49
2022-08-25T07:58:42.845Z,56.59
2022-08-25T07:59:45.686Z,56.74
2022-08-25T08:00:48.016Z,57.08
2022-08-25T08:01:49.530Z,56.65
2022-08-25T08:02:50.983Z,56.66
2022-08-25T08:03:52.581Z,57.37
2022-08-25T08:04:54.690Z,56.79
2022-08-25T08:05:56.189Z,57.12
2022-08-25T08:06:57.574Z,57.05
2022-08-25T08:07:59.076Z,57.06
2022-08-25T08:09:01.594Z,57.48
2022-08-25T08:10:32.804Z,56.76
2022-08-25T08:11:27.159Z,57.12
2022-08-25T08:12:28.733Z,57.00
2022-08-25T08:13:30.206Z,57.49
2022-08-25T08:14:31.613Z,57.04
2022-08-25T08:15:33.096Z,57.06
2022-08-25T08:16:34.614Z,57.03
2022-08-25T08:17:36.090Z,56.95
2022-08-25T08:18:38.147Z,56.63
2022-08-25T08:19:44.935Z,56.40
2022-08-25T08:20:47.806Z,56.67
2022-08-25T08:21:49.202Z,57.31
2022-08-25T08:22:52.545Z,56.90
2022-08-25T08:23:58.582Z,57.13
2022-08-25T08:25:01.490Z,57.42
2022-08-25T08:26:02.899Z,57.05
2022-08-25T08:27:06.638Z,57.32
2022-08-25T08:28:08.390Z,56.86
2022-08-25T08:29:12.484Z,57.32
2022-08-25T08:30:14.198Z,57.19
2022-08-25T08:31:15.642Z,56.51
2022-08-25T08:32:17.076Z,56.49
2022-08-25T08:33:18.478Z,57.00
2022-08-25T08:34:24.800Z,57.21
2022-08-25T08:35:26.549Z,56.71
2022-08-25T08:36:28.248Z,57.06
2022-08-25T08:37:31.661Z,56.96
2022-08-25T08:38:33.853Z,56.89
2022-08-25T08:39:37.033Z,57.06
2022-08-25T08:40:54.911Z,57.40
2022-08-25T08:42:16.881Z,56.57
2022-08-25T08:43:19.151Z,57.01
2022-08-25T08:44:23.553Z,57.26
2022-08-25T08:45:29.889Z,57.43
2022-08-25T08:46:39.565Z,57.85
2022-08-25T08:47:47.104Z,57.61
2022-08-25T08:48:48.992Z,56.63
2022-08-25T08:50:04.206Z,56.35
2022-08-25T08:51:23.088Z,56.18
2022-08-25T08:52:33.134Z,56.48
2022-08-25T08:53:54.789Z,56.29
2022-08-25T08:55:01.227Z,56.15
2022-08-25T08:56:11.787Z,56.00
2022-08-25T08:57:19.684Z,55.95
2022-08-25T08:58:26.245Z,55.90
2022-08-25T08:59:31.065Z,56.63
2022-08-25T09:00:33.066Z,56.11
2022-08-25T09:01:39.106Z,55.13
2022-08-25T09:02:52.039Z,55.07
2022-08-25T09:03:59.649Z,55.68
2022-08-25T09:05:02.942Z,55.58
2022-08-25T09:06:17.552Z,55.13
2022-08-25T09:07:21.488Z,55.28
2022-08-25T09:08:22.903Z,55.28
2022-08-25T09:09:35.702Z,55.18
2022-08-25T09:10:48.195Z,55.35
2022-08-25T09:11:55.443Z,55.43
2022-08-25T09:13:12.615Z,53.80
2022-08-25T09:14:19.430Z,54.35
2022-08-25T09:15:41.323Z,53.17
2022-08-25T09:16:52.109Z,52.90
2022-08-25T09:17:59.397Z,52.91
2022-08-25T09:19:21.266Z,51.98
2022-08-25T09:20:24.998Z,51.95
2022-08-25T09:21:44.840Z,51.27
2022-08-25T09:23:13.168Z,51.58
2022-08-25T09:24:17.712Z,51.63
2022-08-25T09:25:39.622Z,51.53
2022-08-25T09:26:53.427Z,51.56
2022-08-25T09:27:57.717Z,51.73
2022-08-25T09:29:16.226Z,51.38
2022-08-25T09:30:21.026Z,51.13
2022-08-25T09:31:30.125Z,51.55
2022-08-25T09:32:34.227Z,51.50
2022-08-25T09:33:37.019Z,51.40
2022-08-25T09:34:38.453Z,51.37
2022-08-25T09:35:40.594Z,51.54
2022-08-25T09:36:42.076Z,51.62
2022-08-25T09:37:43.551Z,51.52
2022-08-25T09:38:45.100Z,51.36
2022-08-25T09:39:46.591Z,51.23
2022-08-25T09:40:51.133Z,50.67
2022-08-25T09:41:54.776Z,51.01
2022-08-25T09:42:58.678Z,51.06
2022-08-25T09:44:00.215Z,50.60
2022-08-25T09:45:01.579Z,50.73
2022-08-25T09:46:09.241Z,50.77
2022-08-25T09:47:28.644Z,50.80
2022-08-25T09:48:33.145Z,50.96
2022-08-25T09:49:41.661Z,50.93
2022-08-25T09:50:46.657Z,50.99
2022-08-25T09:51:48.339Z,51.07
2022-08-25T09:52:54.191Z,50.45
2022-08-25T09:53:58.760Z,50.64
2022-08-25T09:55:05.971Z,50.41
2022-08-25T09:56:09.936Z,50.48
2022-08-25T09:57:31.790Z,49.73
2022-08-25T09:58:33.565Z,49.69
2022-08-25T09:59:36.169Z,50.07
2022-08-25T10:00:37.656Z,49.49
2022-08-25T10:01:47.490Z,49.87
2022-08-25T10:03:10.219Z,49.38
2022-08-25T10:04:19.014Z,49.26
2022-08-25T10:05:23.786Z,49.36
2022-08-25T10:06:27.174Z,49.78
2022-08-25T10:07:28.542Z,48.55
2022-08-25T10:08:39.555Z,48.01
2022-08-25T10:09:42.524Z,47.94
2022-08-25T10:10:45.632Z,48.60
2022-08-25T10:11:47.445Z,48.73
2022-08-25T10:12:51.342Z,48.37
2022-08-25T10:14:01.100Z,48.37
2022-08-25T10:15:29.661Z,48.16
2022-08-25T10:16:36.019Z,48.24
2022-08-25T10:17:38.052Z,47.40
2022-08-25T10:18:40.586Z,46.53
2022-08-25T10:19:44.301Z,45.83
2022-08-25T10:21:00.241Z,46.40
2022-08-25T10:22:20.190Z,46.76
2022-08-25T10:23:26.844Z,46.42
2022-08-25T10:24:28.270Z,46.49
2022-08-25T10:25:31.056Z,46.54
2022-08-25T10:26:41.577Z,46.57
2022-08-25T10:27:45.721Z,46.40
2022-08-25T10:28:49.861Z,46.14
2022-08-25T10:30:00.481Z,46.38
2022-08-25T10:31:10.138Z,46.89
2022-08-25T10:32:18.715Z,46.87
2022-08-25T10:33:32.157Z,47.13
2022-08-25T10:34:51.629Z,46.62
2022-08-25T10:36:05.049Z,46.86
2022-08-25T10:37:23.708Z,45.77
2022-08-25T10:38:36.136Z,45.57
2022-08-25T10:39:42.423Z,45.54
2022-08-25T10:41:10.256Z,45.69
2022-08-25T10:42:17.702Z,45.56
2022-08-25T10:43:23.816Z,45.24
2022-08-25T10:44:50.536Z,45.28
2022-08-25T10:46:07.027Z,45.45
2022-08-25T10:47:11.376Z,45.06
2022-08-25T10:48:20.840Z,45.38
2022-08-25T10:49:29.653Z,45.50
2022-08-25T10:50:45.303Z,45.25
2022-08-25T10:52:16.259Z,45.21
2022-08-25T10:53:23.579Z,43.39
2022-08-25T10:54:24.994Z,43.27
2022-08-25T10:55:34.204Z,42.88
2022-08-25T10:56:45.389Z,42.71
2022-08-25T10:57:46.767Z,43.32
2022-08-25T10:59:09.268Z,43.13
2022-08-25T11:00:18.711Z,42.28
2022-08-25T11:01:43.624Z,42.44
2022-08-25T11:03:01.476Z,41.75
2022-08-25T11:04:06.494Z,42.09
2022-08-25T11:05:13.844Z,42.32
2022-08-25T11:06:24.865Z,41.80
2022-08-25T11:07:31.396Z,41.56
2022-08-25T11:08:36.411Z,41.79
2022-08-25T11:09:40.168Z,42.55
2022-08-25T11:10:44.590Z,41.82
2022-08-25T11:11:45.966Z,41.98
2022-08-25T11:12:54.230Z,42.29
2022-08-25T11:14:00.154Z,41.86
2022-08-25T11:15:10.231Z,41.30
2022-08-25T11:16:17.490Z,40.78
2022-08-25T11:17:24.713Z,41.12
2022-08-25T11:18:29.205Z,41.32
2022-08-25T11:19:30.583Z,41.29
2022-08-25T11:20:41.996Z,42.10
2022-08-25T11:21:52.233Z,42.16
2022-08-25T11:22:59.650Z,41.53
2022-08-25T11:24:19.404Z,42.07
2022-08-25T11:25:26.122Z,41.82
2022-08-25T11:26:32.878Z,42.34
2022-08-25T11:27:42.966Z,41.87
2022-08-25T11:29:05.994Z,41.94
2022-08-25T11:30:14.195Z,42.26
2022-08-25T11:31:16.954Z,41.45
2022-08-25T11:32:19.569Z,41.19
2022-08-25T11:33:24.296Z,40.80
2022-08-25T11:34:27.720Z,40.49
2022-08-25T11:35:42.345Z,39.78
2022-08-25T11:36:50.869Z,40.05
2022-08-25T11:38:10.667Z,40.94
2022-08-25T11:39:34.486Z,40.25
2022-08-25T11:40:55.096Z,40.17
2022-08-25T11:42:18.646Z,39.66
2022-08-25T11:43:40.546Z,40.85
2022-08-25T11:44:53.310Z,40.13
2022-08-25T11:46:07.697Z,40.17
2022-08-25T11:47:23.751Z,39.79
2022-08-25T11:48:34.506Z,40.06
2022-08-25T11:49:36.025Z,40.36
2022-08-25T11:50:56.787Z,40.26
2022-08-25T11:52:03.119Z,40.42
2022-08-25T11:53:11.327Z,40.14
2022-08-25T11:54:21.973Z,39.76
2022-08-25T11:55:29.050Z,39.99
2022-08-25T11:56:34.713Z,39.57
2022-08-25T11:57:36.721Z,39.56
2022-08-25T11:58:46.566Z,40.08
2022-08-25T11:59:51.093Z,40.03
2022-08-25T12:00:53.015Z,40.13
2022-08-25T12:01:54.375Z,39.92
2022-08-25T12:03:00.847Z,39.47
2022-08-25T12:04:30.855Z,39.18
2022-08-25T12:05:52.762Z,39.42
2022-08-25T12:07:06.192Z,40.22
2022-08-25T12:08:08.501Z,39.50
2022-08-25T12:09:10.762Z,39.74
2022-08-25T12:10:13.994Z,39.68
2022-08-25T12:11:35.319Z,40.07
2022-08-25T12:12:42.556Z,39.00
2022-08-25T12:13:45.816Z,39.49
2022-08-25T12:14:47.494Z,39.13
2022-08-25T12:15:49.675Z,38.94
2022-08-25T12:16:52.381Z,39.43
2022-08-25T12:18:09.294Z,38.48
2022-08-25T12:19:29.503Z,38.90
2022-08-25T12:21:03.354Z,38.35
2022-08-25T12:22:04.796Z,38.95
2022-08-25T12:23:06.789Z,39.13
2022-08-25T12:24:10.761Z,39.01
2022-08-25T12:25:18.391Z,38.90
2022-08-25T12:26:19.826Z,39.18
2022-08-25T12:27:39.809Z,38.92
2022-08-25T12:29:10.629Z,37.94
2022-08-25T12:30:27.945Z,38.05
2022-08-25T12:31:41.050Z,38.33
2022-08-25T12:33:01.245Z,38.37
2022-08-25T12:34:14.282Z,38.79
2022-08-25T12:35:15.620Z,38.44
2022-08-25T12:36:29.283Z,38.19
2022-08-25T12:37:30.774Z,38.32
2022-08-25T12:38:52.362Z,38.66
2022-08-25T12:39:59.719Z,38.78
2022-08-25T12:41:07.560Z,38.52
2022-08-25T12:42:24.706Z,38.27
2022-08-25T12:43:37.285Z,38.44
2022-08-25T12:44:46.454Z,37.90
2022-08-25T12:45:50.366Z,37.95
2022-08-25T12:47:10.869Z,37.69
2022-08-25T12:48:27.627Z,37.58
2022-08-25T12:49:33.913Z,37.96
2022-08-25T12:50:44.981Z,38.17
2022-08-25T12:51:50.718Z,38.71
2022-08-25T12:52:53.205Z,38.61
2022-08-25T12:54:00.778Z,38.59
2022-08-25T12:55:04.262Z,38.24
2022-08-25T12:56:07.645Z,38.66
2022-08-25T12:57:15.165Z,38.65
2022-08-25T12:58:16.613Z,38.99
2022-08-25T12:59:39.610Z,39.03
2022-08-25T13:01:06.758Z,39.54
2022-08-25T13:02:19.682Z,39.57
2022-08-25T13:03:30.935Z,39.13
2022-08-25T13:04:58.285Z,39.62
2022-08-25T13:06:14.958Z,39.02
2022-08-25T13:07:28.747Z,38.75
2022-08-25T13:08:47.060Z,39.01
2022-08-25T13:09:49.482Z,39.06
2022-08-25T13:10:52.613Z,39.28
2022-08-25T13:12:05.891Z,39.11
2022-08-25T13:13:19.267Z,38.87
2022-08-25T13:14:38.395Z,38.22
2022-08-25T13:15:44.461Z,38.00
2022-08-25T13:16:55.792Z,37.83
2022-08-25T13:18:12.318Z,37.81
2022-08-25T13:19:18.256Z,37.57
2022-08-25T13:20:24.118Z,37.22
2022-08-25T13:21:28.518Z,37.09
2022-08-25T13:22:31.079Z,37.30
2022-08-25T13:23:35.936Z,37.89
2022-08-25T13:24:41.283Z,37.56
2022-08-25T13:25:47.641Z,37.29
2022-08-25T13:26:52.564Z,37.15
2022-08-25T13:27:58.753Z,37.49
2022-08-25T13:29:03.560Z,37.62
2022-08-25T13:30:19.370Z,37.32
2022-08-25T13:31:21.512Z,36.92
2022-08-25T13:32:32.295Z,37.32
2022-08-25T13:33:36.944Z,37.40
2022-08-25T13:34:42.665Z,37.13
2022-08-25T13:35:48.201Z,36.94
2022-08-25T13:36:54.082Z,37.02
2022-08-25T13:38:12.599Z,37.02
2022-08-25T13:39:15.903Z,37.29
2022-08-25T13:40:27.574Z,36.65
2022-08-25T13:41:29.970Z,37.05
2022-08-25T13:42:35.798Z,37.44
2022-08-25T13:43:38.284Z,36.99
2022-08-25T13:44:40.438Z,36.95
2022-08-25T13:45:53.250Z,37.52
2022-08-25T13:47:14.925Z,37.21
2022-08-25T13:48:31.719Z,37.48
2022-08-25T13:49:33.155Z,37.36
2022-08-25T13:50:36.173Z,37.33
2022-08-25T13:51:39.331Z,36.30
2022-08-25T13:52:40.812Z,36.32
2022-08-25T13:54:04.870Z,35.76
2022-08-25T13:55:06.519Z,35.51
2022-08-25T13:56:11.411Z,36.12
2022-08-25T13:57:23.693Z,35.53
2022-08-25T13:58:39.431Z,35.92